ISS1262 LIEO-LFKF
Flight info
| Callsign | ISS1262 |
|---|---|
| Flight time | 0h 21m |
| Altitude | 12000 |
| Route | OLBEK DCT ASKAG |
| Aircraft | B739/M-SDE2E3FGHIRWXY/LB1 |
Departure
| Time | 2026-05-06 17:27 |
|---|---|
| Airport | Olbia Costa Smeralda Airport (LIEO) |
Arrival
| Time | 2026-05-06 17:48 |
|---|---|
| Airport | Figari Sud-Corse Airport (LFKF) |
| Time | Latitude | Longitude | Altitude | Speed | Heading |
|---|---|---|---|---|---|
| 2026-05-06 17:09 | 40.90114 | 9.51394 | 48 ft | 0 kts | 24° |
| 2026-05-06 17:21 | 40.90124 | 9.51412 | 48 ft | 3 kts | 78° |
| 2026-05-06 17:22 | 40.90109 | 9.51445 | 48 ft | 5 kts | 145° |
| 2026-05-06 17:22 | 40.90075 | 9.51470 | 48 ft | 6 kts | 150° |
| 2026-05-06 17:22 | 40.90030 | 9.51505 | 48 ft | 9 kts | 157° |
| 2026-05-06 17:22 | 40.89943 | 9.51492 | 48 ft | 14 kts | 214° |
| 2026-05-06 17:23 | 40.89877 | 9.51388 | 48 ft | 15 kts | 236° |
| 2026-05-06 17:23 | 40.89817 | 9.51267 | 48 ft | 16 kts | 237° |
| 2026-05-06 17:23 | 40.89753 | 9.51141 | 48 ft | 17 kts | 234° |
| 2026-05-06 17:23 | 40.89679 | 9.51008 | 48 ft | 19 kts | 235° |
| 2026-05-06 17:24 | 40.89603 | 9.50863 | 48 ft | 19 kts | 235° |
| 2026-05-06 17:24 | 40.89521 | 9.50712 | 48 ft | 20 kts | 243° |
| 2026-05-06 17:24 | 40.89447 | 9.50551 | 48 ft | 21 kts | 235° |
| 2026-05-06 17:24 | 40.89372 | 9.50449 | 48 ft | 0 kts | 191° |
| 2026-05-06 17:25 | 40.89331 | 9.50444 | 48 ft | 14 kts | 176° |
| 2026-05-06 17:25 | 40.89270 | 9.50537 | 48 ft | 15 kts | 101° |
| 2026-05-06 17:26 | 40.89290 | 9.50655 | 48 ft | 0 kts | 54° |
| 2026-05-06 17:26 | 40.89291 | 9.50658 | 48 ft | 2 kts | 53° |
| 2026-05-06 17:26 | 40.89442 | 9.50925 | 48 ft | 94 kts | 58° |
| 2026-05-06 17:26 | 40.90008 | 9.52026 | 98 ft | 189 kts | 52° |
| 2026-05-06 17:27 | 40.90778 | 9.53641 | 805 ft | 233 kts | 58° |
| 2026-05-06 17:27 | 40.91612 | 9.55470 | 2216 ft | 242 kts | 62° |
| 2026-05-06 17:27 | 40.92447 | 9.57295 | 3452 ft | 247 kts | 54° |
| 2026-05-06 17:27 | 40.93506 | 9.58996 | 4628 ft | 253 kts | 49° |
| 2026-05-06 17:28 | 40.94603 | 9.60745 | 5798 ft | 258 kts | 52° |
| 2026-05-06 17:28 | 40.95687 | 9.62654 | 6946 ft | 265 kts | 53° |
| 2026-05-06 17:28 | 40.96728 | 9.64609 | 8019 ft | 271 kts | 54° |
| 2026-05-06 17:28 | 40.97814 | 9.66654 | 9082 ft | 278 kts | 52° |
| 2026-05-06 17:29 | 40.99117 | 9.68552 | 10052 ft | 288 kts | 36° |
| 2026-05-06 17:29 | 41.00800 | 9.69834 | 11315 ft | 286 kts | 22° |
| 2026-05-06 17:29 | 41.02650 | 9.70886 | 11963 ft | 305 kts | 20° |
| 2026-05-06 17:29 | 41.04710 | 9.72026 | 11979 ft | 346 kts | 21° |
| 2026-05-06 17:30 | 41.06997 | 9.73358 | 11954 ft | 378 kts | 22° |
| 2026-05-06 17:30 | 41.09412 | 9.74825 | 11954 ft | 389 kts | 23° |
| 2026-05-06 17:30 | 41.11875 | 9.76360 | 11945 ft | 390 kts | 24° |
| 2026-05-06 17:30 | 41.14341 | 9.77918 | 11944 ft | 391 kts | 24° |
| 2026-05-06 17:31 | 41.16795 | 9.79476 | 11940 ft | 391 kts | 24° |
| 2026-05-06 17:31 | 41.19221 | 9.81018 | 11933 ft | 392 kts | 24° |
| 2026-05-06 17:31 | 41.21687 | 9.82579 | 11935 ft | 391 kts | 24° |
| 2026-05-06 17:31 | 41.24167 | 9.84086 | 11932 ft | 390 kts | 21° |
| 2026-05-06 17:32 | 41.26740 | 9.85147 | 11934 ft | 388 kts | 7° |
| 2026-05-06 17:32 | 41.29416 | 9.85175 | 11936 ft | 384 kts | 352° |
| 2026-05-06 17:32 | 41.32074 | 9.84660 | 11932 ft | 383 kts | 347° |
| 2026-05-06 17:32 | 41.34664 | 9.83998 | 11934 ft | 383 kts | 346° |
| 2026-05-06 17:33 | 41.37295 | 9.83313 | 11934 ft | 383 kts | 347° |
| 2026-05-06 17:33 | 41.39922 | 9.82680 | 11934 ft | 383 kts | 347° |
| 2026-05-06 17:33 | 41.42564 | 9.82095 | 11932 ft | 383 kts | 348° |
| 2026-05-06 17:33 | 41.45197 | 9.81549 | 11929 ft | 383 kts | 349° |
| 2026-05-06 17:34 | 41.47831 | 9.81024 | 11926 ft | 383 kts | 349° |
| 2026-05-06 17:34 | 41.50449 | 9.80512 | 11925 ft | 382 kts | 349° |
| 2026-05-06 17:34 | 41.53101 | 9.79998 | 11925 ft | 383 kts | 349° |
| 2026-05-06 17:34 | 41.55691 | 9.79496 | 11928 ft | 377 kts | 349° |
| 2026-05-06 17:35 | 41.58274 | 9.78996 | 11918 ft | 371 kts | 349° |
| 2026-05-06 17:35 | 41.60793 | 9.78509 | 11698 ft | 356 kts | 348° |
| 2026-05-06 17:35 | 41.63211 | 9.78042 | 11199 ft | 359 kts | 349° |
| 2026-05-06 17:36 | 41.68104 | 9.77086 | 10652 ft | 336 kts | 349° |
| 2026-05-06 17:36 | 41.70349 | 9.76656 | 10573 ft | 316 kts | 349° |
| 2026-05-06 17:36 | 41.72456 | 9.76255 | 10425 ft | 302 kts | 348° |
| 2026-05-06 17:36 | 41.74467 | 9.75785 | 10284 ft | 286 kts | 343° |
| 2026-05-06 17:37 | 41.76229 | 9.74819 | 10202 ft | 265 kts | 321° |
| 2026-05-06 17:37 | 41.77419 | 9.73061 | 10041 ft | 263 kts | 297° |
| 2026-05-06 17:37 | 41.78057 | 9.70808 | 9882 ft | 254 kts | 281° |
| 2026-05-06 17:37 | 41.78289 | 9.68542 | 9648 ft | 243 kts | 268° |
| 2026-05-06 17:38 | 41.78103 | 9.66244 | 9438 ft | 250 kts | 258° |
| 2026-05-06 17:38 | 41.77763 | 9.63988 | 9073 ft | 244 kts | 257° |
| 2026-05-06 17:38 | 41.77434 | 9.61812 | 8702 ft | 239 kts | 258° |
| 2026-05-06 17:38 | 41.77148 | 9.59669 | 8391 ft | 230 kts | 259° |
| 2026-05-06 17:39 | 41.76894 | 9.57596 | 8100 ft | 222 kts | 260° |
| 2026-05-06 17:39 | 41.76646 | 9.55575 | 7820 ft | 214 kts | 260° |
| 2026-05-06 17:39 | 41.76407 | 9.53648 | 7570 ft | 207 kts | 260° |
| 2026-05-06 17:39 | 41.76173 | 9.51754 | 7394 ft | 207 kts | 260° |
| 2026-05-06 17:40 | 41.75905 | 9.49846 | 7079 ft | 207 kts | 255° |
| 2026-05-06 17:40 | 41.75307 | 9.48165 | 6845 ft | 206 kts | 233° |
| 2026-05-06 17:40 | 41.74351 | 9.46727 | 6511 ft | 207 kts | 227° |
| 2026-05-06 17:40 | 41.73375 | 9.45303 | 6241 ft | 205 kts | 229° |
| 2026-05-06 17:41 | 41.72449 | 9.43862 | 6077 ft | 203 kts | 231° |
| 2026-05-06 17:41 | 41.71542 | 9.42412 | 5983 ft | 204 kts | 231° |
| 2026-05-06 17:41 | 41.70614 | 9.40978 | 5883 ft | 206 kts | 230° |
| 2026-05-06 17:41 | 41.69669 | 9.39550 | 5482 ft | 210 kts | 230° |
| 2026-05-06 17:42 | 41.68705 | 9.38095 | 5014 ft | 214 kts | 230° |
| 2026-05-06 17:42 | 41.67720 | 9.36597 | 4557 ft | 213 kts | 230° |
| 2026-05-06 17:42 | 41.66746 | 9.35126 | 4111 ft | 211 kts | 230° |
| 2026-05-06 17:42 | 41.65807 | 9.33735 | 3969 ft | 201 kts | 228° |
| 2026-05-06 17:43 | 41.64882 | 9.32381 | 3982 ft | 187 kts | 229° |
| 2026-05-06 17:43 | 41.64082 | 9.31114 | 4006 ft | 173 kts | 231° |
| 2026-05-06 17:43 | 41.63318 | 9.29902 | 3999 ft | 168 kts | 230° |
| 2026-05-06 17:43 | 41.62572 | 9.28746 | 4008 ft | 160 kts | 230° |
| 2026-05-06 17:44 | 41.61858 | 9.27635 | 3893 ft | 159 kts | 230° |
| 2026-05-06 17:44 | 41.61139 | 9.26521 | 3632 ft | 159 kts | 230° |
| 2026-05-06 17:44 | 41.60424 | 9.25413 | 3380 ft | 155 kts | 230° |
| 2026-05-06 17:44 | 41.59719 | 9.24321 | 3134 ft | 155 kts | 230° |
| 2026-05-06 17:45 | 41.59015 | 9.23231 | 2886 ft | 155 kts | 230° |
| 2026-05-06 17:45 | 41.58311 | 9.22140 | 2636 ft | 157 kts | 230° |
| 2026-05-06 17:45 | 41.57611 | 9.21055 | 2390 ft | 155 kts | 230° |
| 2026-05-06 17:45 | 41.56906 | 9.19960 | 2145 ft | 155 kts | 230° |
| 2026-05-06 17:46 | 41.56220 | 9.18900 | 1908 ft | 153 kts | 230° |
| 2026-05-06 17:46 | 41.55532 | 9.17835 | 1670 ft | 151 kts | 230° |
| 2026-05-06 17:46 | 41.54855 | 9.16790 | 1435 ft | 150 kts | 230° |
| 2026-05-06 17:46 | 41.54167 | 9.15726 | 1201 ft | 150 kts | 230° |
| 2026-05-06 17:47 | 41.53491 | 9.14677 | 971 ft | 149 kts | 230° |
| 2026-05-06 17:47 | 41.52822 | 9.13640 | 745 ft | 148 kts | 230° |
| 2026-05-06 17:47 | 41.52163 | 9.12596 | 545 ft | 146 kts | 231° |
| 2026-05-06 17:47 | 41.51496 | 9.11548 | 273 ft | 148 kts | 230° |
| 2026-05-06 17:48 | 41.50813 | 9.10555 | 82 ft | 143 kts | 227° |
| 2026-05-06 17:48 | 41.50270 | 9.09760 | 72 ft | 68 kts | 227° |
| 2026-05-06 17:48 | 41.50090 | 9.09502 | 65 ft | 33 kts | 227° |
| 2026-05-06 17:48 | 41.50001 | 9.09369 | 63 ft | 14 kts | 227° |
| 2026-05-06 17:49 | 41.49927 | 9.09311 | 61 ft | 5 kts | 198° |
| 2026-05-06 17:49 | 41.49897 | 9.09265 | 59 ft | 8 kts | 279° |
| 2026-05-06 17:49 | 41.49947 | 9.09250 | 60 ft | 8 kts | 42° |
| 2026-05-06 17:49 | 41.49993 | 9.09326 | 62 ft | 12 kts | 52° |
| 2026-05-06 17:50 | 41.50021 | 9.09371 | 63 ft | 0 kts | 50° |
| 2026-05-06 17:50 | 41.50068 | 9.09445 | 63 ft | 20 kts | 47° |
| 2026-05-06 17:50 | 41.50145 | 9.09562 | 67 ft | 15 kts | 50° |
| 2026-05-06 17:50 | 41.50189 | 9.09674 | 70 ft | 13 kts | 97° |
| 2026-05-06 17:51 | 41.50132 | 9.09772 | 69 ft | 10 kts | 139° |
| 2026-05-06 17:51 | 41.50065 | 9.09817 | 67 ft | 11 kts | 153° |
| 2026-05-06 17:51 | 41.50031 | 9.09850 | 67 ft | 0 kts | 138° |